createdAt,value
2023-03-17T00:00:30.470Z,5.67
2023-03-17T00:01:31.229Z,5.69
2023-03-17T00:02:30.315Z,5.67
2023-03-17T00:03:30.463Z,5.66
2023-03-17T00:04:30.301Z,5.66
2023-03-17T00:05:30.248Z,5.60
2023-03-17T00:06:30.314Z,5.65
2023-03-17T00:07:30.243Z,5.65
2023-03-17T00:08:30.244Z,5.66
2023-03-17T00:09:30.252Z,5.62
2023-03-17T00:10:30.481Z,5.65
2023-03-17T00:11:30.214Z,5.62
2023-03-17T00:12:30.112Z,5.62
2023-03-17T00:13:30.095Z,5.62
2023-03-17T00:14:30.059Z,5.59
2023-03-17T00:15:30.033Z,5.62
2023-03-17T00:16:30.034Z,5.59
2023-03-17T00:17:30.009Z,5.56
2023-03-17T00:18:30.055Z,5.56
2023-03-17T00:19:30.058Z,5.56
2023-03-17T00:20:30.195Z,5.52
2023-03-17T00:21:29.984Z,5.49
2023-03-17T00:22:29.957Z,5.49
2023-03-17T00:23:30.035Z,5.49
2023-03-17T00:24:30.034Z,5.48
2023-03-17T00:25:29.958Z,5.48
2023-03-17T00:26:29.951Z,5.47
2023-03-17T00:27:29.922Z,5.48
2023-03-17T00:28:29.915Z,5.45
2023-03-17T00:29:29.896Z,5.45
2023-03-17T00:30:30.210Z,5.44
2023-03-17T00:31:30.055Z,5.41
2023-03-17T00:32:29.940Z,5.42
2023-03-17T00:33:29.860Z,5.41
2023-03-17T00:34:29.838Z,5.41
2023-03-17T00:35:29.934Z,5.41
2023-03-17T00:36:29.833Z,5.42
2023-03-17T00:37:29.795Z,5.40
2023-03-17T00:38:29.850Z,5.40
2023-03-17T00:39:29.780Z,5.40
2023-03-17T00:40:30.018Z,5.42
2023-03-17T00:41:29.770Z,5.42
2023-03-17T00:42:29.745Z,5.42
2023-03-17T00:43:30.721Z,5.44
2023-03-17T00:44:29.719Z,5.40
2023-03-17T00:45:29.710Z,5.44
2023-03-17T00:46:29.765Z,5.42
2023-03-17T00:47:29.693Z,5.45
2023-03-17T00:48:29.673Z,5.42
2023-03-17T00:49:29.696Z,5.44
2023-03-17T00:50:29.898Z,5.40
2023-03-17T00:51:29.673Z,5.42
2023-03-17T00:52:29.666Z,5.41
2023-03-17T00:53:29.616Z,5.38
2023-03-17T00:54:29.643Z,5.35
2023-03-17T00:55:29.605Z,5.33
2023-03-17T00:56:29.589Z,5.33
2023-03-17T00:57:29.577Z,5.32
2023-03-17T00:58:29.573Z,5.32
2023-03-17T00:59:29.588Z,5.33
2023-03-17T01:00:30.119Z,5.30
2023-03-17T01:01:29.540Z,5.32
2023-03-17T01:02:29.589Z,5.30
2023-03-17T01:03:29.510Z,5.29
2023-03-17T01:04:29.521Z,5.30
2023-03-17T01:05:29.511Z,5.30
2023-03-17T01:06:29.500Z,5.29
2023-03-17T01:07:29.466Z,5.29
2023-03-17T01:08:29.471Z,5.27
2023-03-17T01:09:29.462Z,5.24
2023-03-17T01:10:29.775Z,5.24
2023-03-17T01:11:29.456Z,5.27
2023-03-17T01:12:29.420Z,5.24
2023-03-17T01:13:29.413Z,5.24
2023-03-17T01:14:29.445Z,5.23
2023-03-17T01:15:29.465Z,5.22
2023-03-17T01:16:29.478Z,5.22
2023-03-17T01:17:29.371Z,5.15
2023-03-17T01:18:29.407Z,5.17
2023-03-17T01:19:29.336Z,5.17
2023-03-17T01:20:29.635Z,5.19
2023-03-17T01:21:29.354Z,5.20
2023-03-17T01:22:29.312Z,5.20
2023-03-17T01:23:29.300Z,5.20
2023-03-17T01:24:29.295Z,5.23
2023-03-17T01:25:29.297Z,5.22
2023-03-17T01:26:29.315Z,5.26
2023-03-17T01:27:29.256Z,5.26
2023-03-17T01:28:29.275Z,5.29
2023-03-17T01:29:29.281Z,5.26
2023-03-17T01:30:29.541Z,5.26
2023-03-17T01:31:29.269Z,5.26
2023-03-17T01:32:29.245Z,5.24
2023-03-17T01:33:29.218Z,5.23
2023-03-17T01:34:29.201Z,5.24
2023-03-17T01:35:29.186Z,5.23
2023-03-17T01:36:29.215Z,5.26
2023-03-17T01:37:29.155Z,5.27
2023-03-17T01:38:29.144Z,5.20
2023-03-17T01:39:29.243Z,5.22
2023-03-17T01:40:29.489Z,5.22
2023-03-17T01:41:29.155Z,5.23
2023-03-17T01:42:29.101Z,5.22
2023-03-17T01:43:29.102Z,5.23
2023-03-17T01:44:29.201Z,5.20
2023-03-17T01:45:29.087Z,5.22
2023-03-17T01:46:29.096Z,5.22
2023-03-17T01:47:29.043Z,5.23
2023-03-17T01:48:29.040Z,5.22
2023-03-17T01:49:29.021Z,5.20
2023-03-17T01:50:29.376Z,5.20
2023-03-17T01:51:29.042Z,5.17
2023-03-17T01:52:29.008Z,5.15
2023-03-17T01:53:28.978Z,5.15
2023-03-17T01:54:28.966Z,5.14
2023-03-17T01:55:28.963Z,5.19
2023-03-17T01:56:28.970Z,5.15
2023-03-17T01:57:28.948Z,5.14
2023-03-17T01:58:28.935Z,5.12
2023-03-17T01:59:28.915Z,5.12
2023-03-17T02:00:29.165Z,5.11
2023-03-17T02:01:28.947Z,5.09
2023-03-17T02:02:28.878Z,5.11
2023-03-17T02:03:28.870Z,5.09
2023-03-17T02:04:28.949Z,5.06
2023-03-17T02:05:28.853Z,5.09
2023-03-17T02:06:28.874Z,5.09
2023-03-17T02:07:28.841Z,5.09
2023-03-17T02:08:28.859Z,5.09
2023-03-17T02:09:28.819Z,5.09
2023-03-17T02:10:29.199Z,5.11
2023-03-17T02:11:28.813Z,5.09
2023-03-17T02:12:28.773Z,5.09
2023-03-17T02:13:28.768Z,5.09
2023-03-17T02:14:28.815Z,5.09
2023-03-17T02:15:28.748Z,5.06
2023-03-17T02:16:28.781Z,5.05
2023-03-17T02:17:28.728Z,5.08
2023-03-17T02:18:28.706Z,5.05
2023-03-17T02:19:28.734Z,5.05
2023-03-17T02:20:29.145Z,5.05
2023-03-17T02:21:28.734Z,5.06
2023-03-17T02:22:28.675Z,5.05
2023-03-17T02:23:28.664Z,5.04
2023-03-17T02:24:28.650Z,5.04
2023-03-17T02:25:28.643Z,5.02
2023-03-17T02:26:28.655Z,5.04
2023-03-17T02:27:28.621Z,5.05
2023-03-17T02:28:28.603Z,5.02
2023-03-17T02:29:28.604Z,5.04
2023-03-17T02:30:28.780Z,5.02
2023-03-17T02:31:28.590Z,5.04
2023-03-17T02:32:28.602Z,5.02
2023-03-17T02:33:28.561Z,5.04
2023-03-17T02:34:28.574Z,5.05
2023-03-17T02:35:28.539Z,4.99
2023-03-17T02:36:28.564Z,4.97
2023-03-17T02:37:28.517Z,4.97
2023-03-17T02:38:28.504Z,4.94
2023-03-17T02:39:28.498Z,4.94
2023-03-17T02:40:28.695Z,4.96
2023-03-17T02:41:28.474Z,4.96
2023-03-17T02:42:28.449Z,4.96
2023-03-17T02:43:28.462Z,4.96
2023-03-17T02:44:28.446Z,4.97
2023-03-17T02:45:28.421Z,4.96
2023-03-17T02:46:28.468Z,5.01
2023-03-17T02:47:28.429Z,4.97
2023-03-17T02:48:28.386Z,4.97
2023-03-17T02:49:28.395Z,4.99
2023-03-17T02:50:28.645Z,4.99
2023-03-17T02:51:28.382Z,4.97
2023-03-17T02:52:28.361Z,4.97
2023-03-17T02:53:28.341Z,4.99
2023-03-17T02:54:28.357Z,4.97
2023-03-17T02:55:28.327Z,4.99
2023-03-17T02:56:28.316Z,4.96
2023-03-17T02:57:28.329Z,4.96
2023-03-17T02:58:28.280Z,4.99
2023-03-17T02:59:28.307Z,4.94
2023-03-17T03:00:28.580Z,4.97
2023-03-17T03:01:28.267Z,5.01
2023-03-17T03:02:28.312Z,4.97
2023-03-17T03:03:28.233Z,4.97
2023-03-17T03:04:28.217Z,4.99
2023-03-17T03:05:28.217Z,4.99
2023-03-17T03:06:28.217Z,4.96
2023-03-17T03:07:28.204Z,4.97
2023-03-17T03:08:28.172Z,4.97
2023-03-17T03:09:28.181Z,4.96
2023-03-17T03:10:28.550Z,4.94
2023-03-17T03:11:28.145Z,4.91
2023-03-17T03:12:28.147Z,4.93
2023-03-17T03:13:28.133Z,4.93
2023-03-17T03:14:28.125Z,4.94
2023-03-17T03:15:28.115Z,4.97
2023-03-17T03:16:28.127Z,4.97
2023-03-17T03:17:28.106Z,4.97
2023-03-17T03:18:28.095Z,5.01
2023-03-17T03:19:28.082Z,4.91
2023-03-17T03:20:28.345Z,4.93
2023-03-17T03:21:28.041Z,4.94
2023-03-17T03:22:28.031Z,4.94
2023-03-17T03:23:28.012Z,4.93
2023-03-17T03:24:28.000Z,4.93
2023-03-17T03:25:28.124Z,4.93
2023-03-17T03:26:27.984Z,4.93
2023-03-17T03:27:27.994Z,4.91
2023-03-17T03:28:27.974Z,4.90
2023-03-17T03:29:27.976Z,4.90
2023-03-17T03:30:27.934Z,4.91
2023-03-17T03:31:28.028Z,4.93
2023-03-17T03:32:27.961Z,4.91
2023-03-17T03:33:27.903Z,4.93
2023-03-17T03:34:27.967Z,4.94
2023-03-17T03:35:27.948Z,4.94
2023-03-17T03:36:28.001Z,4.94
2023-03-17T03:37:27.889Z,4.94
2023-03-17T03:38:27.853Z,4.93
2023-03-17T03:39:28.135Z,4.97
2023-03-17T03:40:28.163Z,4.96
2023-03-17T03:41:27.851Z,4.96
2023-03-17T03:42:27.829Z,4.97
2023-03-17T03:43:27.799Z,4.94
2023-03-17T03:44:27.794Z,4.96
2023-03-17T03:45:27.804Z,4.97
2023-03-17T03:46:27.863Z,4.94
2023-03-17T03:47:27.761Z,4.96
2023-03-17T03:48:27.736Z,4.97
2023-03-17T03:49:27.751Z,4.97
2023-03-17T03:50:27.888Z,4.96
2023-03-17T03:51:27.713Z,4.97
2023-03-17T03:52:27.705Z,4.97
2023-03-17T03:53:27.688Z,4.97
2023-03-17T03:54:27.689Z,4.97
2023-03-17T03:55:27.675Z,4.94
2023-03-17T03:56:27.665Z,4.94
2023-03-17T03:57:27.666Z,4.94
2023-03-17T03:58:27.649Z,4.93
2023-03-17T03:59:27.630Z,4.94
2023-03-17T04:00:27.673Z,4.93
2023-03-17T04:01:27.625Z,4.94
2023-03-17T04:02:27.668Z,4.94
2023-03-17T04:03:27.585Z,4.93
2023-03-17T04:04:27.593Z,4.90
2023-03-17T04:05:27.583Z,4.86
2023-03-17T04:06:27.561Z,4.86
2023-03-17T04:07:27.570Z,4.84
2023-03-17T04:08:27.544Z,4.84
2023-03-17T04:09:27.518Z,4.84
2023-03-17T04:10:27.500Z,4.86
2023-03-17T04:11:27.540Z,4.84
2023-03-17T04:12:27.503Z,4.83
2023-03-17T04:13:27.469Z,4.80
2023-03-17T04:14:27.463Z,4.80
2023-03-17T04:15:27.487Z,4.84
2023-03-17T04:16:27.544Z,4.83
2023-03-17T04:17:27.468Z,4.83
2023-03-17T04:18:27.515Z,4.84
2023-03-17T04:19:27.421Z,4.84
2023-03-17T04:20:27.449Z,4.80
2023-03-17T04:21:27.408Z,4.80
2023-03-17T04:22:27.398Z,4.77
2023-03-17T04:23:27.394Z,4.75
2023-03-17T04:24:27.404Z,4.75
2023-03-17T04:25:27.381Z,4.77
2023-03-17T04:26:27.387Z,4.79
2023-03-17T04:27:27.412Z,4.75
2023-03-17T04:28:27.371Z,4.75
2023-03-17T04:29:27.300Z,4.72
2023-03-17T04:30:27.337Z,4.72
2023-03-17T04:31:27.491Z,4.72
2023-03-17T04:32:27.383Z,4.72
2023-03-17T04:33:27.257Z,4.72
2023-03-17T04:34:27.271Z,4.74
2023-03-17T04:35:27.298Z,4.75
2023-03-17T04:36:27.239Z,4.75
2023-03-17T04:37:27.222Z,4.75
2023-03-17T04:38:27.201Z,4.75
2023-03-17T04:39:27.210Z,4.75
2023-03-17T04:40:27.206Z,4.75
2023-03-17T04:41:27.205Z,4.75
2023-03-17T04:42:27.190Z,4.75
2023-03-17T04:43:27.165Z,4.74
2023-03-17T04:44:27.168Z,4.75
2023-03-17T04:45:27.229Z,4.72
2023-03-17T04:46:27.126Z,4.71
2023-03-17T04:47:27.122Z,4.69
2023-03-17T04:48:27.127Z,4.71
2023-03-17T04:49:27.048Z,4.67
2023-03-17T04:50:27.031Z,4.68
2023-03-17T04:51:27.120Z,4.68
2023-03-17T04:52:27.083Z,4.69
2023-03-17T04:53:27.097Z,4.69
2023-03-17T04:54:27.031Z,4.68
2023-03-17T04:55:27.010Z,4.71
2023-03-17T04:56:28.040Z,4.68
2023-03-17T04:57:27.009Z,4.67
2023-03-17T04:58:30.838Z,4.67
2023-03-17T04:59:26.977Z,4.68
2023-03-17T05:00:26.969Z,4.64
2023-03-17T05:01:26.970Z,4.62
2023-03-17T05:02:26.914Z,4.62
2023-03-17T05:03:28.085Z,4.62
2023-03-17T05:04:31.636Z,4.62
2023-03-17T05:05:26.903Z,4.62
2023-03-17T05:06:26.852Z,4.64
2023-03-17T05:07:26.893Z,4.64
2023-03-17T05:08:27.519Z,4.64
2023-03-17T05:09:26.964Z,4.64
2023-03-17T05:10:27.511Z,4.68
2023-03-17T05:11:26.974Z,4.65
2023-03-17T05:12:26.881Z,4.67
2023-03-17T05:13:26.802Z,4.68
2023-03-17T05:14:26.773Z,4.67
2023-03-17T05:15:27.506Z,4.69
2023-03-17T05:16:26.789Z,4.69
2023-03-17T05:17:26.740Z,4.71
2023-03-17T05:18:26.733Z,4.72
2023-03-17T05:19:26.716Z,4.71
2023-03-17T05:20:26.780Z,4.69
2023-03-17T05:21:26.692Z,4.71
2023-03-17T05:22:26.683Z,4.68
2023-03-17T05:23:26.695Z,4.72
2023-03-17T05:24:26.674Z,4.74
2023-03-17T05:25:26.667Z,4.74
2023-03-17T05:26:26.641Z,4.74
2023-03-17T05:27:26.680Z,4.74
2023-03-17T05:28:26.622Z,4.71
2023-03-17T05:29:26.606Z,4.74
2023-03-17T05:30:26.592Z,4.71
2023-03-17T05:31:26.658Z,4.74
2023-03-17T05:32:26.622Z,4.72
2023-03-17T05:33:26.591Z,4.65
2023-03-17T05:34:26.546Z,4.67
2023-03-17T05:35:26.550Z,4.65
2023-03-17T05:36:26.548Z,4.62
2023-03-17T05:37:26.707Z,4.64
2023-03-17T05:38:26.536Z,4.64
2023-03-17T05:39:26.503Z,4.67
2023-03-17T05:40:26.495Z,4.67
2023-03-17T05:41:26.518Z,4.68
2023-03-17T05:42:26.477Z,4.68
2023-03-17T05:43:26.473Z,4.67
2023-03-17T05:44:26.445Z,4.68
2023-03-17T05:45:26.455Z,4.67
2023-03-17T05:46:26.501Z,4.68
2023-03-17T05:47:26.631Z,4.68
2023-03-17T05:48:26.406Z,4.72
2023-03-17T05:49:26.402Z,4.77
2023-03-17T05:50:26.405Z,4.80
2023-03-17T05:51:26.385Z,4.84
2023-03-17T05:52:26.422Z,4.84
2023-03-17T05:53:26.349Z,4.86
2023-03-17T05:54:26.344Z,4.87
2023-03-17T05:55:26.349Z,4.88
2023-03-17T05:56:26.328Z,4.90
2023-03-17T05:57:26.334Z,4.86
2023-03-17T05:58:26.305Z,4.88
2023-03-17T05:59:26.319Z,4.87
2023-03-17T06:00:26.272Z,4.90
2023-03-17T06:01:26.295Z,4.87
2023-03-17T06:02:26.415Z,4.86
2023-03-17T06:03:26.300Z,4.86
2023-03-17T06:04:26.244Z,4.87
2023-03-17T06:05:26.390Z,4.86
2023-03-17T06:06:26.262Z,4.87
2023-03-17T06:07:26.410Z,4.88
2023-03-17T06:08:26.241Z,4.87
2023-03-17T06:09:26.201Z,4.88
2023-03-17T06:10:26.197Z,4.91
2023-03-17T06:11:26.187Z,4.93
2023-03-17T06:12:26.168Z,4.93
2023-03-17T06:13:26.209Z,4.96
2023-03-17T06:14:27.221Z,4.97
2023-03-17T06:15:26.186Z,4.97
2023-03-17T06:16:26.211Z,4.94
2023-03-17T06:17:26.113Z,4.97
2023-03-17T06:18:26.114Z,4.97
2023-03-17T06:19:26.104Z,4.97
2023-03-17T06:20:26.082Z,5.01
2023-03-17T06:21:26.055Z,5.02
2023-03-17T06:22:26.041Z,5.01
2023-03-17T06:23:26.070Z,5.04
2023-03-17T06:24:26.032Z,5.06
2023-03-17T06:25:26.072Z,5.08
2023-03-17T06:26:26.056Z,5.06
2023-03-17T06:27:26.073Z,4.93
2023-03-17T06:28:26.080Z,4.96
2023-03-17T06:29:25.987Z,4.97
2023-03-17T06:30:26.043Z,4.96
2023-03-17T06:31:26.001Z,4.99
2023-03-17T06:32:25.990Z,4.99
2023-03-17T06:33:26.171Z,5.02
2023-03-17T06:34:26.631Z,5.02
2023-03-17T06:35:25.980Z,5.02
2023-03-17T06:36:26.029Z,5.06
2023-03-17T06:37:25.958Z,5.08
2023-03-17T06:38:26.132Z,5.14
2023-03-17T06:39:26.144Z,5.15
2023-03-17T06:40:26.144Z,5.19
2023-03-17T06:41:26.059Z,5.20
2023-03-17T06:42:25.864Z,5.23
2023-03-17T06:43:25.945Z,5.24
2023-03-17T06:44:25.867Z,5.26
2023-03-17T06:45:25.902Z,5.29
2023-03-17T06:46:25.833Z,5.27
2023-03-17T06:47:26.166Z,5.30
2023-03-17T06:48:26.172Z,5.32
2023-03-17T06:49:25.776Z,5.35
2023-03-17T06:50:25.764Z,5.37
2023-03-17T06:51:25.831Z,5.37
2023-03-17T06:52:25.722Z,5.40
2023-03-17T06:53:25.733Z,5.41
2023-03-17T06:54:25.701Z,5.42
2023-03-17T06:55:25.689Z,5.41
2023-03-17T06:56:30.361Z,5.44
2023-03-17T06:57:25.682Z,5.44
2023-03-17T06:58:25.736Z,5.48
2023-03-17T06:59:25.718Z,5.48
2023-03-17T07:00:25.672Z,5.49
2023-03-17T07:01:25.708Z,5.51
2023-03-17T07:02:25.686Z,5.52
2023-03-17T07:03:25.691Z,5.51
2023-03-17T07:04:25.714Z,5.58
2023-03-17T07:05:25.621Z,5.60
2023-03-17T07:06:27.028Z,5.66
2023-03-17T07:07:25.575Z,5.73
2023-03-17T07:08:25.556Z,5.75
2023-03-17T07:09:25.622Z,5.78
2023-03-17T07:10:25.785Z,5.84
2023-03-17T07:11:26.266Z,5.96
2023-03-17T07:12:25.835Z,5.99
2023-03-17T07:13:25.828Z,6.02
2023-03-17T07:14:25.712Z,6.03
2023-03-17T07:15:25.538Z,6.01
2023-03-17T07:16:25.549Z,6.03
2023-03-17T07:17:25.471Z,6.08
2023-03-17T07:18:27.538Z,6.19
2023-03-17T07:19:25.558Z,6.14
2023-03-17T07:20:25.497Z,6.16
2023-03-17T07:21:25.415Z,6.27
2023-03-17T07:22:25.427Z,6.25
2023-03-17T07:23:25.442Z,6.21
2023-03-17T07:24:25.380Z,6.19
2023-03-17T07:25:25.671Z,6.21
2023-03-17T07:26:25.669Z,6.24
2023-03-17T07:27:25.410Z,6.24
2023-03-17T07:28:25.427Z,6.30
2023-03-17T07:29:25.333Z,6.35
2023-03-17T07:30:25.325Z,6.36
2023-03-17T07:31:25.326Z,6.35
2023-03-17T07:32:25.346Z,6.38
2023-03-17T07:33:25.300Z,6.42
2023-03-17T07:34:25.412Z,6.81
2023-03-17T07:35:25.384Z,7.27
2023-03-17T07:36:25.301Z,7.77
2023-03-17T07:37:25.277Z,7.99
2023-03-17T07:38:25.315Z,8.02
2023-03-17T07:39:25.484Z,8.40
2023-03-17T07:40:25.243Z,8.43
2023-03-17T07:41:25.213Z,8.43
2023-03-17T07:42:25.285Z,8.49
2023-03-17T07:43:25.198Z,8.52
2023-03-17T07:44:25.259Z,8.49
2023-03-17T07:45:25.464Z,8.65
2023-03-17T07:46:25.171Z,8.73
2023-03-17T07:47:25.142Z,9.06
2023-03-17T07:48:25.143Z,9.31
2023-03-17T07:49:40.061Z,9.42
2023-03-17T07:50:25.169Z,9.45
2023-03-17T07:51:25.097Z,9.44
2023-03-17T07:52:25.102Z,9.17
2023-03-17T07:53:25.096Z,8.86
2023-03-17T07:54:25.057Z,8.64
2023-03-17T07:55:25.088Z,8.42
2023-03-17T07:56:25.066Z,8.31
2023-03-17T07:57:25.130Z,8.18
2023-03-17T07:58:25.097Z,8.17
2023-03-17T07:59:25.002Z,8.14
2023-03-17T08:00:25.030Z,8.20
2023-03-17T08:01:24.988Z,8.76
2023-03-17T08:02:27.016Z,9.89
2023-03-17T08:03:25.090Z,10.65
2023-03-17T08:04:24.982Z,11.09
2023-03-17T08:05:24.943Z,11.59
2023-03-17T08:06:24.946Z,11.67
2023-03-17T08:07:24.972Z,11.74
2023-03-17T08:08:24.983Z,12.19
2023-03-17T08:09:24.968Z,12.54
2023-03-17T08:10:24.993Z,12.77
2023-03-17T08:11:24.951Z,13.06
2023-03-17T08:12:24.872Z,13.24
2023-03-17T08:13:24.869Z,13.66
2023-03-17T08:14:24.848Z,13.96
2023-03-17T08:15:31.643Z,14.21
2023-03-17T08:16:27.274Z,14.59
2023-03-17T08:17:24.855Z,15.34
2023-03-17T08:18:24.835Z,15.77
2023-03-17T08:19:24.798Z,16.41
2023-03-17T08:20:24.794Z,16.40
2023-03-17T08:21:24.819Z,16.54
2023-03-17T08:22:24.787Z,15.71
2023-03-17T08:23:24.777Z,14.39
2023-03-17T08:24:24.801Z,13.13
2023-03-17T08:25:24.752Z,12.23
2023-03-17T08:26:24.750Z,12.13
2023-03-17T08:27:24.703Z,11.94
2023-03-17T08:28:24.732Z,11.98
2023-03-17T08:29:24.714Z,11.90
2023-03-17T08:30:24.680Z,11.90
2023-03-17T08:31:24.755Z,11.60
2023-03-17T08:32:24.650Z,11.30
2023-03-17T08:33:24.680Z,11.03
2023-03-17T08:34:24.655Z,11.02
2023-03-17T08:35:24.682Z,11.05
2023-03-17T08:36:24.617Z,11.26
2023-03-17T08:37:24.610Z,11.54
2023-03-17T08:38:24.606Z,11.42
2023-03-17T08:39:24.596Z,11.26
2023-03-17T08:40:24.607Z,11.01
2023-03-17T08:41:24.549Z,10.88
2023-03-17T08:42:24.558Z,10.86
2023-03-17T08:43:24.542Z,10.90
2023-03-17T08:44:24.534Z,11.01
2023-03-17T08:45:24.544Z,10.94
2023-03-17T08:46:24.564Z,10.87
2023-03-17T08:47:24.490Z,10.81
2023-03-17T08:48:24.515Z,10.26
2023-03-17T08:49:24.478Z,10.06
2023-03-17T08:50:24.473Z,9.89
2023-03-17T08:51:24.782Z,9.71
2023-03-17T08:52:24.462Z,9.74
2023-03-17T08:53:24.468Z,9.81
2023-03-17T08:54:24.445Z,9.91
2023-03-17T08:55:24.456Z,9.95
2023-03-17T08:56:24.426Z,9.98
2023-03-17T08:57:24.395Z,9.99
2023-03-17T08:58:24.421Z,10.01
2023-03-17T08:59:24.379Z,9.86
2023-03-17T09:00:24.378Z,9.71
2023-03-17T09:01:24.476Z,9.77
2023-03-17T09:02:24.407Z,9.70
2023-03-17T09:03:24.352Z,9.60
2023-03-17T09:04:24.345Z,9.45
2023-03-17T09:05:24.371Z,9.48
2023-03-17T09:06:24.334Z,9.41
2023-03-17T09:07:24.310Z,9.48
2023-03-17T09:08:24.290Z,9.52
2023-03-17T09:09:24.312Z,9.45
2023-03-17T09:10:24.279Z,9.41
2023-03-17T09:11:24.281Z,9.48
2023-03-17T09:12:24.243Z,9.49
2023-03-17T09:13:24.250Z,9.49
2023-03-17T09:14:24.229Z,9.55
2023-03-17T09:15:24.204Z,9.59
2023-03-17T09:16:24.473Z,9.68
2023-03-17T09:17:24.188Z,9.73
2023-03-17T09:18:24.207Z,9.77
2023-03-17T09:19:24.174Z,9.80
2023-03-17T09:20:24.179Z,9.92
2023-03-17T09:21:24.153Z,9.99
2023-03-17T09:22:24.122Z,10.02
2023-03-17T09:23:24.153Z,10.07
2023-03-17T09:24:24.112Z,10.13
2023-03-17T09:25:24.131Z,10.13
2023-03-17T09:26:24.132Z,10.14
2023-03-17T09:27:24.074Z,10.17
2023-03-17T09:28:24.090Z,10.22
2023-03-17T09:29:24.083Z,10.22
2023-03-17T09:30:24.080Z,10.36
2023-03-17T09:31:24.196Z,10.46
2023-03-17T09:32:24.055Z,10.54
2023-03-17T09:33:24.058Z,10.55
2023-03-17T09:34:24.039Z,10.69
2023-03-17T09:35:24.020Z,10.84
2023-03-17T09:36:24.042Z,10.84
2023-03-17T09:37:23.970Z,10.88
2023-03-17T09:38:23.982Z,11.02
2023-03-17T09:39:24.009Z,11.12
2023-03-17T09:40:23.963Z,11.17
2023-03-17T09:41:23.969Z,11.16
2023-03-17T09:42:23.935Z,11.12
2023-03-17T09:43:23.917Z,11.21
2023-03-17T09:44:23.925Z,11.30
2023-03-17T09:45:23.896Z,11.36
2023-03-17T09:46:23.910Z,11.49
2023-03-17T09:47:23.889Z,11.60
2023-03-17T09:48:23.866Z,11.87
2023-03-17T09:49:23.874Z,12.12
2023-03-17T09:50:23.935Z,12.52
2023-03-17T09:51:23.824Z,12.95
2023-03-17T09:52:23.843Z,13.09
2023-03-17T09:53:23.803Z,13.32
2023-03-17T09:54:23.842Z,13.31
2023-03-17T09:55:23.795Z,13.86
2023-03-17T09:56:23.787Z,14.59
2023-03-17T09:57:23.771Z,15.20
2023-03-17T09:58:23.753Z,15.55
2023-03-17T09:59:23.846Z,15.71
2023-03-17T10:00:23.757Z,15.38
2023-03-17T10:01:23.790Z,15.15
2023-03-17T10:02:23.733Z,15.40
2023-03-17T10:03:23.729Z,15.60
2023-03-17T10:04:23.710Z,15.67
2023-03-17T10:05:23.804Z,15.51
2023-03-17T10:06:23.694Z,15.49
2023-03-17T10:07:23.686Z,15.28
2023-03-17T10:08:31.318Z,15.20
2023-03-17T10:09:26.572Z,14.85
2023-03-17T10:10:24.225Z,14.52
2023-03-17T10:11:23.626Z,14.36
2023-03-17T10:12:23.644Z,14.19
2023-03-17T10:13:23.583Z,13.98
2023-03-17T10:14:23.657Z,13.86
2023-03-17T10:15:23.604Z,13.81
2023-03-17T10:16:23.614Z,13.91
2023-03-17T10:17:23.571Z,13.90
2023-03-17T10:18:23.550Z,14.31
2023-03-17T10:19:23.566Z,14.63
2023-03-17T10:20:23.610Z,15.15
2023-03-17T10:21:23.508Z,15.66
2023-03-17T10:22:23.511Z,16.01
2023-03-17T10:23:23.490Z,16.10
2023-03-17T10:24:23.479Z,16.22
2023-03-17T10:25:23.480Z,16.17
2023-03-17T10:26:23.529Z,16.08
2023-03-17T10:27:23.446Z,15.78
2023-03-17T10:28:23.469Z,15.66
2023-03-17T10:29:23.441Z,15.59
2023-03-17T10:30:23.431Z,15.62
2023-03-17T10:31:23.492Z,15.44
2023-03-17T10:32:23.388Z,15.38
2023-03-17T10:33:23.559Z,15.60
2023-03-17T10:34:23.380Z,15.92
2023-03-17T10:35:23.402Z,16.23
2023-03-17T10:36:23.372Z,16.26
2023-03-17T10:37:23.341Z,16.41
2023-03-17T10:38:23.352Z,15.80
2023-03-17T10:39:23.330Z,15.40
2023-03-17T10:40:23.345Z,14.71
2023-03-17T10:41:23.300Z,14.57
2023-03-17T10:42:23.297Z,14.63
2023-03-17T10:43:23.404Z,14.82
2023-03-17T10:44:23.773Z,14.98
2023-03-17T10:45:23.268Z,15.12
2023-03-17T10:46:23.399Z,15.35
2023-03-17T10:47:23.232Z,15.52
2023-03-17T10:48:23.255Z,15.64
2023-03-17T10:49:23.232Z,15.86
2023-03-17T10:50:23.225Z,16.03
2023-03-17T10:51:23.225Z,16.18
2023-03-17T10:52:23.221Z,16.34
2023-03-17T10:53:23.204Z,16.40
2023-03-17T10:54:23.146Z,16.47
2023-03-17T10:55:23.147Z,16.22
2023-03-17T10:56:23.150Z,16.10
2023-03-17T10:57:23.133Z,16.25
2023-03-17T10:58:23.103Z,16.33
2023-03-17T10:59:23.142Z,15.92
2023-03-17T11:00:23.079Z,15.86
2023-03-17T11:01:23.181Z,15.81
2023-03-17T11:02:23.109Z,15.71
2023-03-17T11:03:23.144Z,15.59
2023-03-17T11:04:23.099Z,15.46
2023-03-17T11:05:23.067Z,15.35
2023-03-17T11:06:23.036Z,15.19
2023-03-17T11:07:23.027Z,15.20
2023-03-17T11:08:23.002Z,15.23
2023-03-17T11:09:23.018Z,15.30
2023-03-17T11:10:22.977Z,15.37
2023-03-17T11:11:23.035Z,15.48
2023-03-17T11:12:23.019Z,15.56
2023-03-17T11:13:23.104Z,15.48
2023-03-17T11:14:22.953Z,15.59
2023-03-17T11:15:22.943Z,15.49
2023-03-17T11:16:22.952Z,15.41
2023-03-17T11:17:22.909Z,15.41
2023-03-17T11:18:22.896Z,15.44
2023-03-17T11:19:22.931Z,15.48
2023-03-17T11:20:22.894Z,15.68
2023-03-17T11:21:22.891Z,15.88
2023-03-17T11:22:22.862Z,15.96
2023-03-17T11:23:22.858Z,16.18
2023-03-17T11:24:22.841Z,16.26
2023-03-17T11:25:22.840Z,16.36
2023-03-17T11:26:22.820Z,16.40
2023-03-17T11:27:22.806Z,16.54
2023-03-17T11:28:22.783Z,16.70
2023-03-17T11:29:22.843Z,16.60
2023-03-17T11:30:22.758Z,16.44
2023-03-17T11:31:22.837Z,16.44
2023-03-17T11:32:22.753Z,16.36
2023-03-17T11:33:22.764Z,16.37
2023-03-17T11:34:22.753Z,16.37
2023-03-17T11:35:22.752Z,16.47
2023-03-17T11:36:22.704Z,16.47
2023-03-17T11:37:22.700Z,16.55
2023-03-17T11:38:22.723Z,16.75
2023-03-17T11:39:22.730Z,16.88
2023-03-17T11:40:22.740Z,17.02
2023-03-17T11:41:22.650Z,17.21
2023-03-17T11:42:22.641Z,17.21
2023-03-17T11:43:22.642Z,17.42
2023-03-17T11:44:22.661Z,17.66
2023-03-17T11:45:22.631Z,17.96
2023-03-17T11:46:22.790Z,18.11
2023-03-17T11:47:22.621Z,17.81
2023-03-17T11:48:22.571Z,17.84
2023-03-17T11:49:22.579Z,18.07
2023-03-17T11:50:22.547Z,18.21
2023-03-17T11:51:22.538Z,18.49
2023-03-17T11:52:22.530Z,18.75
2023-03-17T11:53:22.540Z,18.64
2023-03-17T11:54:22.560Z,18.14
2023-03-17T11:55:22.499Z,17.89
2023-03-17T11:56:22.504Z,17.98
2023-03-17T11:57:22.551Z,18.09
2023-03-17T11:58:22.478Z,18.04
2023-03-17T11:59:22.512Z,18.02
2023-03-17T12:00:22.668Z,17.92
2023-03-17T12:01:22.444Z,18.04
2023-03-17T12:02:22.412Z,18.13
2023-03-17T12:03:22.629Z,18.17
2023-03-17T12:04:22.515Z,18.11
2023-03-17T12:05:22.404Z,18.21
2023-03-17T12:06:22.385Z,18.10
2023-03-17T12:07:23.222Z,17.89
2023-03-17T12:08:22.348Z,17.95
2023-03-17T12:09:22.359Z,17.74
2023-03-17T12:10:22.404Z,17.40
2023-03-17T12:11:22.355Z,17.25
2023-03-17T12:12:22.321Z,17.24
2023-03-17T12:13:22.320Z,17.32
2023-03-17T12:14:22.322Z,17.32
2023-03-17T12:15:22.308Z,17.09
2023-03-17T12:16:22.276Z,16.70
2023-03-17T12:17:23.135Z,16.42
2023-03-17T12:18:22.248Z,16.45
2023-03-17T12:19:22.257Z,16.45
2023-03-17T12:20:22.246Z,16.30
2023-03-17T12:21:22.235Z,16.16
2023-03-17T12:22:22.209Z,16.22
2023-03-17T12:23:22.277Z,16.25
2023-03-17T12:24:22.208Z,16.42
2023-03-17T12:25:22.190Z,16.57
2023-03-17T12:26:22.190Z,16.80
2023-03-17T12:27:22.178Z,16.90
2023-03-17T12:28:22.141Z,16.88
2023-03-17T12:29:22.149Z,17.09
2023-03-17T12:30:22.114Z,17.14
2023-03-17T12:31:22.226Z,17.18
2023-03-17T12:32:22.133Z,17.06
2023-03-17T12:33:22.106Z,17.07
2023-03-17T12:34:22.102Z,17.06
2023-03-17T12:35:22.086Z,17.10
2023-03-17T12:36:22.090Z,17.12
2023-03-17T12:37:22.057Z,17.14
2023-03-17T12:38:22.030Z,17.17
2023-03-17T12:39:22.118Z,17.27
2023-03-17T12:40:22.088Z,17.38
2023-03-17T12:41:22.018Z,17.42
2023-03-17T12:42:21.991Z,17.32
2023-03-17T12:43:21.986Z,17.22
2023-03-17T12:44:22.006Z,17.28
2023-03-17T12:45:22.006Z,17.33
2023-03-17T12:46:21.986Z,17.33
2023-03-17T12:47:21.945Z,17.46
2023-03-17T12:48:21.961Z,17.60
2023-03-17T12:49:21.923Z,17.62
2023-03-17T12:50:21.968Z,17.66
2023-03-17T12:51:21.939Z,17.57
2023-03-17T12:52:21.919Z,17.32
2023-03-17T12:53:21.931Z,17.17
2023-03-17T12:54:21.866Z,17.25
2023-03-17T12:55:21.880Z,17.39
2023-03-17T12:56:21.860Z,17.30
2023-03-17T12:57:21.869Z,17.39
2023-03-17T12:58:21.828Z,17.35
2023-03-17T12:59:21.820Z,17.42
2023-03-17T13:00:21.845Z,17.46
2023-03-17T13:01:21.849Z,17.39
2023-03-17T13:02:21.812Z,17.20
2023-03-17T13:03:21.818Z,16.98
2023-03-17T13:04:21.794Z,16.78
2023-03-17T13:05:21.775Z,16.65
2023-03-17T13:06:21.757Z,16.47
2023-03-17T13:07:21.757Z,16.42
2023-03-17T13:08:21.749Z,16.45
2023-03-17T13:09:21.736Z,16.54